WetterOnline ( https://www.wetteronline.de )

Wetter aktuell Roth

Aktuelles Wetter: Roth (386m)

6-stündlich | Neueste Meldungen
Ortszeit Temperatur Wetter
Mi, 28.09. 14:00 10.6° C wolkig
Mi, 28.09. 8:00 8.6° C leichter Regen
Mi, 28.09. 2:00 7.0° C bewölkt
Di, 27.09. 20:00 8.2° C bedeckt
Di, 27.09. 14:00 9.6° C leichter Regen
Di, 27.09. 8:00 8.7° C bedeckt
Di, 27.09. 2:00 10.3° C leichter Regen
Mo, 26.09. 20:00 12.0° C bewölkt
Ortszeit Temperatur Wetter
Mi, 28.09. 14:30 11.6° C bewölkt
Mi, 28.09. 14:20 11.6° C bewölkt
Mi, 28.09. 14:10 10.9° C bewölkt
Mi, 28.09. 14:00 10.6° C wolkig
Mi, 28.09. 13:50 10.6° C wolkig
Mi, 28.09. 13:40 9.7° C bewölkt
Mi, 28.09. 13:30 9.4° C leichter Regen
Mi, 28.09. 13:00 10.1° C bewölkt
Mi, 28.09. 12:30 10.8° C bewölkt
Mi, 28.09. 12:00 11.0° C wolkig
Mi, 28.09. 11:30 10.3° C bewölkt
Ortszeit Relative Feuchte Sichtweite
Mi, 28.09. 14:00 72% >70 km
Mi, 28.09. 8:00 93% 12 km
Mi, 28.09. 2:00 82% >70 km
Di, 27.09. 20:00 82% >70 km
Di, 27.09. 14:00 82% 11 km
Di, 27.09. 8:00 90% 55 km
Di, 27.09. 2:00 85% 30 km
Mo, 26.09. 20:00 70% >70 km
Ortszeit Relative Feuchte Sichtweite
Mi, 28.09. 14:30 67% 60 km
Mi, 28.09. 14:20 67% -
Mi, 28.09. 14:10 68% -
Mi, 28.09. 14:00 72% >70 km
Mi, 28.09. 13:50 72% -
Mi, 28.09. 13:40 76% -
Mi, 28.09. 13:30 80% 16 km
Mi, 28.09. 13:00 73% >70 km
Mi, 28.09. 12:30 71% 60 km
Mi, 28.09. 12:00 73% >70 km
Mi, 28.09. 11:30 81% >70 km
Ortszeit Niederschlagsmenge Niederschlagsart
Mi, 28.09. 14:00 1 l/m2 in 6 Std. Regen
Mi, 28.09. 8:00 2 l/m2 in 12 Std. Regen
Mi, 28.09. 2:00 0.1 l/m2 in 6 Std. Sprühregen
Di, 27.09. 20:00 0.8 l/m2 in 12 Std. Regen
Di, 27.09. 14:00 0.7 l/m2 in 6 Std. Regen
Di, 27.09. 8:00 4 l/m2 in 12 Std. Regen
Di, 27.09. 2:00 0.3 l/m2 in 6 Std. Regen
Mo, 26.09. 20:00 0.1 l/m2 in 12 Std. Regen
Ortszeit Niederschlagsmenge Niederschlagsart
Mi, 28.09. 14:30 0.0 l/m2 in 1 Std. -
Mi, 28.09. 14:20 keine Meldung -
Mi, 28.09. 14:10 keine Meldung -
Mi, 28.09. 14:00 0.1 l/m2 in 1 Std. Regen
Mi, 28.09. 13:50 keine Meldung -
Mi, 28.09. 13:40 keine Meldung -
Mi, 28.09. 13:30 0.1 l/m2 in 1 Std. -
Mi, 28.09. 13:00 0.0 l/m2 in 1 Std. -
Mi, 28.09. 12:30 0.0 l/m2 in 1 Std. -
Mi, 28.09. 12:00 0.0 l/m2 in 1 Std. -
Mi, 28.09. 11:30 0.0 l/m2 in 1 Std. -
Ortszeit Stärke Spitze Richtung
km/h Bft. km/h Grad Sektor
Mi, 28.09. 14:00 11 2 36 260° W
Mi, 28.09. 8:00 7 2 29 290° W
Mi, 28.09. 2:00 11 2 29 210° SW
Di, 27.09. 20:00 17 3 44 260° W
Di, 27.09. 14:00 22 4 43 260° W
Di, 27.09. 8:00 14 3 36 250° W
Di, 27.09. 2:00 14 3 29 210° SW
Mo, 26.09. 20:00 7 2 29 210° SW
Ortszeit Stärke Spitze Richtung
km/h Bft. km/h Grad Sektor
Mi, 28.09. 14:30 13 3 22 300° NW
Mi, 28.09. 14:20 13 3 - 300° NW
Mi, 28.09. 14:10 14 3 - 290° W
Mi, 28.09. 14:00 11 2 36 260° W
Mi, 28.09. 13:50 11 2 - 260° W
Mi, 28.09. 13:40 9 2 - 290° W
Mi, 28.09. 13:30 14 3 36 300° NW
Mi, 28.09. 13:00 18 3 32 330° NW
Mi, 28.09. 12:30 19 3 31 260° W
Mi, 28.09. 12:00 22 4 32 250° W
Mi, 28.09. 11:30 15 3 30 270° W
Ortszeit Untergrenze Bedeckung Gattung
total tief tief mittel hoch
Mi, 28.09. 14:00 870 m 7/8 3/8 - - -
Mi, 28.09. 8:00 360 m 7/8 7/8 - - -
Mi, 28.09. 2:00 1500 m 7/8 7/8 - - -
Di, 27.09. 20:00 780 m 8/8 8/8 - - -
Di, 27.09. 14:00 480 m 6/8 6/8 - - -
Di, 27.09. 8:00 540 m 8/8 8/8 - - -
Di, 27.09. 2:00 900 m 8/8 8/8 - - -
Mo, 26.09. 20:00 2400 m 8/8 4/8 - - -
Ortszeit Bedeckungsgrad in Achtel und Wolkenuntergrenze
Mi, 28.09. 14:30 4(1500m) 8(6600m)
Mi, 28.09. 14:20 4(1500m) 8(6600m)
Mi, 28.09. 14:10 7
Mi, 28.09. 14:00 3(870m) 7(6600m) 7(7800m)
Mi, 28.09. 13:50 3(870m) 7(6600m) 7(7800m)
Mi, 28.09. 13:40 7
Mi, 28.09. 13:30 1(570m) 7(1320m) 8(1500m)
Mi, 28.09. 13:00 5(600m) 7(780m) 7(1140m)
Mi, 28.09. 12:30 2(660m) 6(1500m) 7(6900m)
Mi, 28.09. 12:00 3(630m) 7(6900m) 7(7800m)
Mi, 28.09. 11:30 4(480m) 6(660m) 7(2400m)
Ortszeit Luftdruck NN (hPa) Tendenz (hPa in 3 Std.)
Mi, 28.09. 14:00 999 + 1,0
Mi, 28.09. 8:00 996 - 1,8
Mi, 28.09. 2:00 1002 - 0,8
Di, 27.09. 20:00 1002 + 0,2
Di, 27.09. 14:00 1002 + 0,5
Di, 27.09. 8:00 999 + 0,7
Di, 27.09. 2:00 1000 - 2,5
Mo, 26.09. 20:00 1004 - 0,7
Ortszeit Luftdruck NN (hPa) Tendenz (hPa in 3 Std.)
Mi, 28.09. 14:30 999 + 0,7
Mi, 28.09. 14:20 999 keine Meldung
Mi, 28.09. 14:10 999 keine Meldung
Mi, 28.09. 14:00 999 + 1,0
Mi, 28.09. 13:50 999 keine Meldung
Mi, 28.09. 13:40 999 keine Meldung
Mi, 28.09. 13:30 999 + 1,3
Mi, 28.09. 13:00 999 + 1,6
Mi, 28.09. 12:30 999 + 1,5
Mi, 28.09. 12:00 998 + 1,9
Mi, 28.09. 11:30 998 + 1,8
Ortszeit Schneehöhe (cm)
Mi, 28.09. 14:00 0
Mi, 28.09. 8:00 0
Mi, 28.09. 2:00 0
Di, 27.09. 20:00 0
Di, 27.09. 14:00 0
Di, 27.09. 8:00 0
Di, 27.09. 2:00 0
Mo, 26.09. 20:00 0
Ortszeit Schneehöhe (cm)
Mi, 28.09. 14:30 0
Mi, 28.09. 14:20 0
Mi, 28.09. 14:10 0
Mi, 28.09. 14:00 0
Mi, 28.09. 13:50 0
Mi, 28.09. 13:40 0
Mi, 28.09. 13:30 0
Mi, 28.09. 13:00 0
Mi, 28.09. 12:30 0
Mi, 28.09. 12:00 0
Mi, 28.09. 11:30 0
Link zu dieser Seite / Seite empfehlen

Das Wetter in ...